createdAt,value
2023-04-09T00:00:00.242Z,81.3
2023-04-09T00:05:00.291Z,81.6
2023-04-09T00:10:00.280Z,80.7
2023-04-09T00:15:00.273Z,81.7
2023-04-09T00:20:00.293Z,82.4
2023-04-09T00:25:00.292Z,82.2
2023-04-09T00:30:00.316Z,82.8
2023-04-09T00:35:00.257Z,82.5
2023-04-09T00:40:00.286Z,83.6
2023-04-09T00:45:00.265Z,82.3
2023-04-09T00:50:00.333Z,82.8
2023-04-09T00:55:00.248Z,82.5
2023-04-09T01:00:00.293Z,83.2
2023-04-09T01:05:00.282Z,82.8
2023-04-09T01:10:00.254Z,82.5
2023-04-09T01:15:00.453Z,82.7
2023-04-09T01:20:00.248Z,82.4
2023-04-09T01:25:00.275Z,82.9
2023-04-09T01:30:00.301Z,82.6
2023-04-09T01:35:00.304Z,82.8
2023-04-09T01:40:00.248Z,82.3
2023-04-09T01:45:00.279Z,81.6
2023-04-09T01:50:00.273Z,81.4
2023-04-09T01:55:00.309Z,81.0
2023-04-09T02:00:00.250Z,81.1
2023-04-09T02:05:00.281Z,81.1
2023-04-09T02:10:00.244Z,80.4
2023-04-09T02:15:00.300Z,81.6
2023-04-09T02:20:00.312Z,82.2
2023-04-09T02:25:00.288Z,81.9
2023-04-09T02:30:00.270Z,81.4
2023-04-09T02:35:00.429Z,81.4
2023-04-09T02:40:00.267Z,81.4
2023-04-09T02:45:00.321Z,81.8
2023-04-09T02:50:00.291Z,81.1
2023-04-09T02:55:00.303Z,81.0
2023-04-09T03:00:00.235Z,81.0
2023-04-09T03:05:00.271Z,80.7
2023-04-09T03:10:00.266Z,81.3
2023-04-09T03:15:00.288Z,80.0
2023-04-09T03:20:00.278Z,79.9
2023-04-09T03:25:00.285Z,80.3
2023-04-09T03:30:00.250Z,80.5
2023-04-09T03:35:00.305Z,80.9
2023-04-09T03:40:00.282Z,80.6
2023-04-09T03:45:00.466Z,80.8
2023-04-09T03:50:00.262Z,81.0
2023-04-09T03:55:00.279Z,81.0
2023-04-09T04:00:00.234Z,80.0
2023-04-09T04:05:00.277Z,80.4
2023-04-09T04:10:00.284Z,80.9
2023-04-09T04:15:00.440Z,80.2
2023-04-09T04:20:00.245Z,79.5
2023-04-09T04:25:00.275Z,81.2
2023-04-09T04:30:00.377Z,82.5
2023-04-09T04:35:00.297Z,82.6
2023-04-09T04:40:00.287Z,82.7
2023-04-09T04:45:00.292Z,81.6
2023-04-09T04:50:00.306Z,83.0
2023-04-09T04:55:00.253Z,82.6
2023-04-09T05:00:00.266Z,82.2
2023-04-09T05:05:00.269Z,81.7
2023-04-09T05:10:00.307Z,82.1
2023-04-09T05:15:00.270Z,82.1
2023-04-09T05:20:00.491Z,81.8
2023-04-09T05:25:00.250Z,82.1
2023-04-09T05:30:01.034Z,82.7
2023-04-09T05:35:00.336Z,82.7
2023-04-09T05:40:00.291Z,82.0
2023-04-09T05:45:00.264Z,82.4
2023-04-09T05:50:00.302Z,81.7
2023-04-09T05:55:00.296Z,81.3
2023-04-09T06:00:00.272Z,81.8
2023-04-09T06:05:00.415Z,81.7
2023-04-09T06:10:00.290Z,81.6
2023-04-09T06:15:00.285Z,82.9
2023-04-09T06:20:00.317Z,82.9
2023-04-09T06:25:00.246Z,82.1
2023-04-09T06:30:00.288Z,82.0
2023-04-09T06:35:00.254Z,82.4
2023-04-09T06:40:01.527Z,82.0
2023-04-09T06:45:00.288Z,81.1
2023-04-09T06:50:00.283Z,81.5
2023-04-09T06:55:00.258Z,81.2
2023-04-09T07:00:00.301Z,81.6
2023-04-09T07:05:00.277Z,81.1
2023-04-09T07:10:00.281Z,81.6
2023-04-09T07:15:00.262Z,80.9
2023-04-09T07:20:00.363Z,81.0
2023-04-09T07:25:00.253Z,80.6
2023-04-09T07:30:00.290Z,80.2
2023-04-09T07:35:00.276Z,80.5
2023-04-09T07:40:00.294Z,79.8
2023-04-09T07:45:00.246Z,79.5
2023-04-09T07:50:00.316Z,78.8
2023-04-09T07:55:00.274Z,79.4
2023-04-09T08:00:00.324Z,79.6
2023-04-09T08:05:00.346Z,78.7
2023-04-09T08:10:00.294Z,77.6
2023-04-09T08:15:00.257Z,76.7
2023-04-09T08:20:00.292Z,77.4
2023-04-09T08:25:02.677Z,75.8
2023-04-09T08:30:00.294Z,76.0
2023-04-09T08:35:00.246Z,75.9
2023-04-09T08:40:00.282Z,75.9
2023-04-09T08:45:00.309Z,75.3
2023-04-09T08:50:00.266Z,74.8
2023-04-09T08:55:00.310Z,74.4
2023-04-09T09:00:00.525Z,74.4
2023-04-09T09:05:00.267Z,74.2
2023-04-09T09:10:00.277Z,74.7
2023-04-09T09:15:00.293Z,73.9
2023-04-09T09:20:00.250Z,72.2
2023-04-09T09:25:00.330Z,71.8
2023-04-09T09:30:00.295Z,72.2
2023-04-09T09:35:00.268Z,75.8
2023-04-09T09:40:00.252Z,71.7
2023-04-09T09:45:00.306Z,70.9
2023-04-09T09:50:00.256Z,70.8
2023-04-09T09:55:00.298Z,71.2
2023-04-09T10:00:00.326Z,70.7
2023-04-09T10:05:00.306Z,70.3
2023-04-09T10:10:00.249Z,69.8
2023-04-09T10:15:00.275Z,69.2
2023-04-09T10:20:00.281Z,68.8
2023-04-09T10:25:00.302Z,68.8
2023-04-09T10:30:00.258Z,67.1
2023-04-09T10:35:00.322Z,64.7
2023-04-09T10:40:00.277Z,62.0
2023-04-09T10:45:00.309Z,61.2
2023-04-09T10:50:00.253Z,62.4
2023-04-09T10:55:00.328Z,63.7
2023-04-09T11:00:00.261Z,63.6
2023-04-09T11:05:00.516Z,63.5
2023-04-09T11:10:00.281Z,62.3
2023-04-09T11:15:00.641Z,62.6
2023-04-09T11:20:00.302Z,61.7
2023-04-09T11:25:00.252Z,59.3
2023-04-09T11:30:00.316Z,59.2
2023-04-09T11:35:00.267Z,58.4
2023-04-09T11:40:00.310Z,57.4
2023-04-09T11:45:00.279Z,57.9
2023-04-09T11:50:00.287Z,58.3
2023-04-09T11:55:00.247Z,57.9
2023-04-09T12:00:01.647Z,57.2
2023-04-09T12:05:00.274Z,56.1
2023-04-09T12:10:00.348Z,56.2
2023-04-09T12:15:00.282Z,54.8
2023-04-09T12:20:00.297Z,55.2
2023-04-09T12:25:00.310Z,54.2
2023-04-09T12:30:00.302Z,54.5
2023-04-09T12:35:00.300Z,55.3
2023-04-09T12:40:00.279Z,54.3
2023-04-09T12:45:00.295Z,51.9
2023-04-09T12:50:00.246Z,53.3
2023-04-09T12:55:00.302Z,49.7
2023-04-09T13:00:00.255Z,49.0
2023-04-09T13:05:00.262Z,51.7
2023-04-09T13:10:00.300Z,50.3
2023-04-09T13:15:00.309Z,50.6
2023-04-09T13:20:00.306Z,50.6
2023-04-09T13:25:00.338Z,50.8
2023-04-09T13:30:00.264Z,52.3
2023-04-09T13:35:00.290Z,52.3
2023-04-09T13:40:00.300Z,51.8
2023-04-09T13:45:00.305Z,50.4
2023-04-09T13:50:00.238Z,50.7
2023-04-09T13:55:00.289Z,51.6
2023-04-09T14:00:00.270Z,49.5
2023-04-09T14:05:00.270Z,49.4
2023-04-09T14:10:00.239Z,49.0
2023-04-09T14:15:00.315Z,48.3
2023-04-09T14:20:00.248Z,48.6
2023-04-09T14:25:00.312Z,48.3
2023-04-09T14:30:00.278Z,48.2
2023-04-09T14:35:00.269Z,47.9
2023-04-09T14:40:00.277Z,48.8
2023-04-09T14:45:00.275Z,47.5
2023-04-09T14:50:00.410Z,47.7
2023-04-09T14:55:00.251Z,48.3
2023-04-09T15:00:00.297Z,47.0
2023-04-09T15:05:00.374Z,47.7
2023-04-09T15:10:00.296Z,47.4
2023-04-09T15:15:00.244Z,47.8
2023-04-09T15:20:00.304Z,47.4
2023-04-09T15:25:00.245Z,47.7
2023-04-09T15:30:00.328Z,49.9
2023-04-09T15:35:00.465Z,50.2
2023-04-09T15:40:00.316Z,49.0
2023-04-09T15:45:00.319Z,48.8
2023-04-09T15:50:00.241Z,48.6
2023-04-09T15:55:00.294Z,48.6
2023-04-09T16:00:00.247Z,48.2
2023-04-09T16:05:00.295Z,48.8
2023-04-09T16:10:00.286Z,48.3
2023-04-09T16:15:00.342Z,49.8
2023-04-09T16:20:00.253Z,50.0
2023-04-09T16:25:00.282Z,50.4
2023-04-09T16:30:00.287Z,50.6
2023-04-09T16:35:00.320Z,50.2
2023-04-09T16:40:00.253Z,50.6
2023-04-09T16:45:00.290Z,50.9
2023-04-09T16:50:00.281Z,52.5
2023-04-09T16:55:00.528Z,52.8
2023-04-09T17:00:00.267Z,56.3
2023-04-09T17:05:00.307Z,56.7
2023-04-09T17:10:00.297Z,58.6
2023-04-09T17:15:00.304Z,59.0
2023-04-09T17:20:00.300Z,59.6
2023-04-09T17:25:00.298Z,59.9
2023-04-09T17:30:00.306Z,60.5
2023-04-09T17:35:00.283Z,60.4
2023-04-09T17:40:00.246Z,61.4
2023-04-09T17:45:00.302Z,61.4
2023-04-09T17:50:00.292Z,62.3
2023-04-09T17:55:00.312Z,62.3
2023-04-09T18:00:00.260Z,63.9
2023-04-09T18:05:00.427Z,63.4
2023-04-09T18:10:00.251Z,63.8
2023-04-09T18:15:00.295Z,64.4
2023-04-09T18:20:00.278Z,64.7
2023-04-09T18:25:00.302Z,65.2
2023-04-09T18:30:00.252Z,65.2
2023-04-09T18:35:00.309Z,65.5
2023-04-09T18:40:02.436Z,66.6
2023-04-09T18:45:00.299Z,66.5
2023-04-09T18:50:00.269Z,65.8
2023-04-09T18:55:00.322Z,66.2
2023-04-09T19:00:00.273Z,66.6
2023-04-09T19:05:00.480Z,66.6
2023-04-09T19:10:00.270Z,67.5
2023-04-09T19:15:00.341Z,67.9
2023-04-09T19:20:00.293Z,68.6
2023-04-09T19:25:00.379Z,68.2
2023-04-09T19:30:00.366Z,67.8
2023-04-09T19:35:00.343Z,68.2
2023-04-09T19:40:00.380Z,67.8
2023-04-09T19:45:00.404Z,69.0
2023-04-09T19:50:00.387Z,69.6
2023-04-09T19:55:00.326Z,70.4
2023-04-09T20:00:00.379Z,69.7
2023-04-09T20:05:00.262Z,69.5
2023-04-09T20:10:00.243Z,70.2
2023-04-09T20:15:00.296Z,69.6
2023-04-09T20:20:00.243Z,69.6
2023-04-09T20:25:00.298Z,69.7
2023-04-09T20:30:00.315Z,69.9
2023-04-09T20:35:00.274Z,69.7
2023-04-09T20:40:00.254Z,69.9
2023-04-09T20:45:01.875Z,70.8
2023-04-09T20:50:00.269Z,70.1
2023-04-09T20:55:00.284Z,70.3
2023-04-09T21:00:00.229Z,70.9
2023-04-09T21:05:08.430Z,71.0
2023-04-09T21:10:00.265Z,71.2
2023-04-09T21:15:00.287Z,71.8
2023-04-09T21:20:00.312Z,71.8
2023-04-09T21:25:00.293Z,71.9
2023-04-09T21:30:00.308Z,71.4
2023-04-09T21:35:00.251Z,72.1
2023-04-09T21:40:00.292Z,71.6
2023-04-09T21:45:00.367Z,71.9
2023-04-09T21:50:00.309Z,72.5
2023-04-09T21:55:00.251Z,72.2
2023-04-09T22:00:00.324Z,72.4
2023-04-09T22:05:00.368Z,72.7
2023-04-09T22:10:00.310Z,73.1
2023-04-09T22:15:00.333Z,72.9
2023-04-09T22:20:00.279Z,72.6
2023-04-09T22:25:00.241Z,73.1
2023-04-09T22:30:00.317Z,73.0
2023-04-09T22:35:00.312Z,73.5
2023-04-09T22:40:00.289Z,73.8
2023-04-09T22:45:00.299Z,74.4
2023-04-09T22:50:00.287Z,74.7
2023-04-09T22:55:00.290Z,75.2
2023-04-09T23:00:00.333Z,75.7
2023-04-09T23:05:00.337Z,75.6
2023-04-09T23:10:00.279Z,75.8
2023-04-09T23:15:00.252Z,76.0
2023-04-09T23:20:00.322Z,76.0
2023-04-09T23:25:00.300Z,76.5
2023-04-09T23:30:00.280Z,77.3
2023-04-09T23:35:00.277Z,76.4
2023-04-09T23:40:00.307Z,77.2
2023-04-09T23:45:00.253Z,77.2
2023-04-09T23:50:00.349Z,76.9
2023-04-09T23:55:00.257Z,77.5
